createdAt,value
2023-02-11T00:01:10.992Z,21.50
2023-02-11T00:03:39.082Z,22.85
2023-02-11T00:06:09.524Z,22.90
2023-02-11T00:08:36.881Z,23.35
2023-02-11T00:11:05.983Z,24.63
2023-02-11T00:13:33.012Z,22.02
2023-02-11T00:16:00.070Z,24.10
2023-02-11T00:18:28.115Z,24.13
2023-02-11T00:20:55.335Z,23.90
2023-02-11T00:23:22.297Z,22.87
2023-02-11T00:25:49.587Z,23.65
2023-02-11T00:28:18.180Z,23.00
2023-02-11T00:30:45.290Z,22.63
2023-02-11T00:33:12.435Z,24.13
2023-02-11T00:35:39.590Z,22.93
2023-02-11T00:38:06.655Z,23.13
2023-02-11T00:40:33.673Z,21.35
2023-02-11T00:43:00.698Z,20.95
2023-02-11T00:45:30.781Z,23.70
2023-02-11T00:47:58.092Z,21.00
2023-02-11T00:50:25.081Z,22.23
2023-02-11T00:52:52.144Z,23.10
2023-02-11T00:55:19.259Z,21.88
2023-02-11T00:57:46.350Z,36.97
2023-02-11T01:00:14.121Z,25.40
2023-02-11T01:02:42.730Z,22.15
2023-02-11T01:05:09.933Z,20.63
2023-02-11T01:07:37.217Z,20.73
2023-02-11T01:10:04.982Z,20.77
2023-02-11T01:12:35.197Z,25.37
2023-02-11T01:15:04.114Z,21.65
2023-02-11T01:17:31.115Z,24.73
2023-02-11T01:19:59.679Z,20.40
2023-02-11T01:22:26.850Z,23.80
2023-02-11T01:24:53.975Z,18.00
2023-02-11T01:27:21.075Z,18.73
2023-02-11T01:29:48.196Z,20.92
2023-02-11T01:32:15.357Z,23.10
2023-02-11T01:34:42.632Z,24.23
2023-02-11T01:37:11.217Z,22.70
2023-02-11T01:39:38.315Z,22.52
2023-02-11T01:42:05.887Z,21.80
2023-02-11T01:44:34.073Z,20.35
2023-02-11T01:47:01.545Z,19.83
2023-02-11T01:49:30.702Z,17.60
2023-02-11T01:52:00.421Z,17.42
2023-02-11T01:54:51.723Z,17.05
2023-02-11T01:57:27.827Z,17.17
2023-02-11T01:59:58.400Z,18.05
2023-02-11T02:02:27.492Z,16.73
2023-02-11T02:04:57.519Z,18.50
2023-02-11T02:07:29.183Z,18.70
2023-02-11T02:09:58.879Z,19.10
2023-02-11T02:12:26.033Z,17.35
2023-02-11T02:15:09.562Z,17.23
2023-02-11T02:17:43.553Z,16.55
2023-02-11T02:20:32.119Z,16.60
2023-02-11T02:23:17.274Z,17.48
2023-02-11T02:26:04.009Z,15.93
2023-02-11T02:28:44.799Z,14.63
2023-02-11T02:31:26.743Z,13.52
2023-02-11T02:33:56.600Z,12.98
2023-02-11T02:36:24.728Z,15.95
2023-02-11T02:38:54.167Z,15.00
2023-02-11T02:41:23.477Z,14.90
2023-02-11T02:43:51.537Z,14.93
2023-02-11T02:46:19.711Z,13.18
2023-02-11T02:48:49.528Z,14.98
2023-02-11T02:51:26.937Z,13.55
2023-02-11T02:53:58.546Z,13.07
2023-02-11T02:56:30.291Z,12.98
2023-02-11T02:59:04.701Z,13.80
2023-02-11T03:01:36.842Z,13.45
2023-02-11T03:04:07.985Z,13.82
2023-02-11T03:06:39.856Z,15.70
2023-02-11T03:09:11.405Z,17.35
2023-02-11T03:11:39.241Z,15.35
2023-02-11T03:14:08.245Z,16.23
2023-02-11T03:16:39.420Z,13.68
2023-02-11T03:19:10.444Z,14.10
2023-02-11T03:21:39.534Z,14.60
2023-02-11T03:24:08.044Z,13.60
2023-02-11T03:26:38.275Z,14.00
2023-02-11T03:29:10.209Z,14.57
2023-02-11T03:31:40.671Z,14.37
2023-02-11T03:34:10.259Z,15.52
2023-02-11T03:36:46.105Z,14.98
2023-02-11T03:39:14.931Z,15.20
2023-02-11T03:41:42.794Z,13.93
2023-02-11T03:44:10.997Z,13.00
2023-02-11T03:46:39.592Z,14.23
2023-02-11T03:49:09.888Z,13.57
2023-02-11T03:51:37.594Z,13.00
2023-02-11T03:54:09.535Z,14.27
2023-02-11T03:56:38.850Z,13.50
2023-02-11T03:59:05.971Z,13.88
2023-02-11T04:01:33.153Z,13.05
2023-02-11T04:04:00.415Z,14.18
2023-02-11T04:06:27.587Z,13.35
2023-02-11T04:08:54.786Z,12.93
2023-02-11T04:11:24.177Z,13.93
2023-02-11T04:13:51.402Z,12.68
2023-02-11T04:16:18.660Z,13.52
2023-02-11T04:18:45.744Z,13.02
2023-02-11T04:21:12.865Z,14.03
2023-02-11T04:23:39.984Z,12.48
2023-02-11T04:26:07.271Z,12.70
2023-02-11T04:28:36.510Z,11.82
2023-02-11T04:31:03.765Z,12.60
2023-02-11T04:33:30.904Z,12.80
2023-02-11T04:35:57.978Z,11.75
2023-02-11T04:38:25.121Z,12.88
2023-02-11T04:40:52.272Z,12.02
2023-02-11T04:43:19.358Z,12.73
2023-02-11T04:45:48.180Z,13.00
2023-02-11T04:48:15.513Z,13.88
2023-02-11T04:50:42.774Z,13.73
2023-02-11T04:53:09.826Z,14.25
2023-02-11T04:55:36.993Z,13.93
2023-02-11T04:58:04.246Z,13.80
2023-02-11T05:00:31.230Z,16.40
2023-02-11T05:02:59.624Z,15.63
2023-02-11T05:05:26.627Z,15.57
2023-02-11T05:07:53.841Z,16.10
2023-02-11T05:10:20.868Z,19.00
2023-02-11T05:12:48.264Z,17.27
2023-02-11T05:15:15.329Z,17.10
2023-02-11T05:17:42.598Z,15.90
2023-02-11T05:20:11.761Z,17.55
2023-02-11T05:22:38.721Z,17.70
2023-02-11T05:25:06.241Z,17.80
2023-02-11T05:27:33.261Z,19.48
2023-02-11T05:30:00.342Z,21.15
2023-02-11T05:32:27.800Z,20.15
2023-02-11T05:34:54.810Z,21.27
2023-02-11T05:37:23.238Z,19.80
2023-02-11T05:39:50.368Z,24.92
2023-02-11T05:42:17.446Z,22.30
2023-02-11T05:44:44.470Z,19.33
2023-02-11T05:47:11.540Z,18.90
2023-02-11T05:49:38.582Z,21.70
2023-02-11T05:52:05.565Z,18.83
2023-02-11T05:54:34.016Z,20.08
2023-02-11T05:57:01.067Z,20.23
2023-02-11T05:59:28.081Z,21.80
2023-02-11T06:01:55.146Z,21.70
2023-02-11T06:04:22.135Z,22.50
2023-02-11T06:06:49.184Z,22.98
2023-02-11T06:09:16.187Z,26.15
2023-02-11T06:11:44.669Z,22.00
2023-02-11T06:14:11.792Z,25.45
2023-02-11T06:16:38.885Z,26.45
2023-02-11T06:19:06.089Z,23.45
2023-02-11T06:21:43.210Z,23.05
2023-02-11T06:24:11.334Z,24.67
2023-02-11T06:26:38.465Z,22.63
2023-02-11T06:29:07.014Z,23.38
2023-02-11T06:31:34.217Z,24.58
2023-02-11T06:34:01.408Z,21.85
2023-02-11T06:36:28.430Z,20.03
2023-02-11T06:38:55.972Z,21.77
2023-02-11T06:41:23.257Z,24.23
2023-02-11T06:43:50.400Z,23.92
2023-02-11T06:46:19.302Z,21.25
2023-02-11T06:48:46.429Z,20.80
2023-02-11T06:51:14.424Z,20.70
2023-02-11T06:53:43.507Z,21.08
2023-02-11T06:56:12.246Z,22.13
2023-02-11T06:58:39.369Z,20.65
2023-02-11T07:01:07.443Z,21.40
2023-02-11T07:03:36.789Z,20.75
2023-02-11T07:06:04.724Z,21.50
2023-02-11T07:08:32.782Z,22.90
2023-02-11T07:11:00.243Z,22.23
2023-02-11T07:13:27.569Z,27.13
2023-02-11T07:15:54.864Z,28.50
2023-02-11T07:18:22.509Z,25.60
2023-02-11T07:20:50.959Z,27.75
2023-02-11T07:23:18.159Z,28.08
2023-02-11T07:25:45.269Z,26.90
2023-02-11T07:28:14.306Z,24.90
2023-02-11T07:30:41.476Z,24.88
2023-02-11T07:33:08.481Z,20.55
2023-02-11T07:35:35.564Z,22.10
2023-02-11T07:38:04.484Z,21.67
2023-02-11T07:40:31.790Z,22.95
2023-02-11T07:43:00.557Z,22.02
2023-02-11T07:45:28.017Z,24.55
2023-02-11T07:47:55.181Z,26.17
2023-02-11T07:50:22.271Z,27.07
2023-02-11T07:52:49.356Z,28.13
2023-02-11T07:55:17.864Z,28.08
2023-02-11T07:57:45.531Z,28.02
2023-02-11T08:00:13.395Z,25.90
2023-02-11T08:02:40.408Z,36.80
2023-02-11T08:05:07.588Z,37.25
2023-02-11T08:07:34.595Z,36.38
2023-02-11T08:10:01.680Z,27.48
2023-02-11T08:12:30.279Z,29.42
2023-02-11T08:14:57.287Z,29.77
2023-02-11T08:17:24.327Z,28.50
2023-02-11T08:19:51.394Z,28.42
2023-02-11T08:22:18.453Z,28.55
2023-02-11T08:24:45.656Z,28.73
2023-02-11T08:27:12.645Z,29.00
2023-02-11T08:29:41.757Z,30.05
2023-02-11T08:32:09.189Z,32.85
2023-02-11T08:34:38.098Z,33.00
2023-02-11T08:37:05.195Z,31.98
2023-02-11T08:39:32.342Z,31.33
2023-02-11T08:41:59.342Z,29.05
2023-02-11T08:44:26.649Z,31.92
2023-02-11T08:46:55.186Z,32.13
2023-02-11T08:49:22.833Z,30.10
2023-02-11T08:51:50.710Z,30.27
2023-02-11T08:54:18.401Z,31.25
2023-02-11T08:56:45.717Z,32.50
2023-02-11T08:59:13.914Z,31.75
2023-02-11T09:01:41.032Z,32.92
2023-02-11T09:04:10.808Z,33.27
2023-02-11T09:06:37.975Z,34.38
2023-02-11T09:09:05.118Z,33.22
2023-02-11T09:11:33.392Z,33.78
2023-02-11T09:14:01.992Z,35.80
2023-02-11T09:16:30.071Z,35.67
2023-02-11T09:18:57.910Z,35.05
2023-02-11T09:21:26.558Z,34.83
2023-02-11T09:23:53.850Z,35.78
2023-02-11T09:26:22.048Z,35.38
2023-02-11T09:28:50.185Z,34.78
2023-02-11T09:31:19.479Z,33.38
2023-02-11T09:33:50.267Z,33.15
2023-02-11T09:36:18.369Z,35.65
2023-02-11T09:38:47.395Z,32.15
2023-02-11T09:41:25.067Z,34.03
2023-02-11T09:43:53.432Z,35.17
2023-02-11T09:46:22.004Z,36.42
2023-02-11T09:48:50.769Z,37.67
2023-02-11T09:51:20.583Z,40.65
2023-02-11T09:53:51.560Z,34.10
2023-02-11T09:56:18.638Z,30.92
2023-02-11T09:58:45.925Z,29.83
2023-02-11T10:01:22.059Z,29.20
2023-02-11T10:04:07.088Z,26.60
2023-02-11T10:06:44.842Z,25.53
2023-02-11T10:09:28.530Z,27.10
2023-02-11T10:11:59.486Z,30.67
2023-02-11T10:14:35.974Z,29.65
2023-02-11T10:17:09.584Z,31.73
2023-02-11T10:19:43.552Z,26.10
2023-02-11T10:22:15.001Z,26.45
2023-02-11T10:24:48.540Z,29.77
2023-02-11T10:27:17.835Z,27.65
2023-02-11T10:29:48.395Z,28.38
2023-02-11T10:32:21.954Z,28.20
2023-02-11T10:34:49.223Z,26.85
2023-02-11T10:37:16.263Z,28.00
2023-02-11T10:39:44.900Z,28.45
2023-02-11T10:42:13.186Z,28.23
2023-02-11T10:44:41.941Z,28.33
2023-02-11T10:47:11.709Z,28.15
2023-02-11T10:49:39.736Z,29.02
2023-02-11T10:52:14.363Z,28.17
2023-02-11T10:54:41.366Z,27.27
2023-02-11T10:57:18.751Z,26.73
2023-02-11T10:59:46.288Z,25.45
2023-02-11T11:02:24.936Z,26.38
2023-02-11T11:04:56.582Z,25.40
2023-02-11T11:07:25.154Z,28.45
2023-02-11T11:09:53.557Z,26.80
2023-02-11T11:12:30.369Z,26.58
2023-02-11T11:14:58.403Z,25.33
2023-02-11T11:17:29.261Z,24.35
2023-02-11T11:20:16.384Z,25.05
2023-02-11T11:22:43.896Z,23.80
2023-02-11T11:25:21.234Z,22.47
2023-02-11T11:27:50.785Z,23.52
2023-02-11T11:30:18.374Z,23.80
2023-02-11T11:32:45.497Z,22.85
2023-02-11T11:35:21.991Z,22.25
2023-02-11T11:37:54.025Z,25.30
2023-02-11T11:40:25.086Z,23.35
2023-02-11T11:43:17.040Z,23.80
2023-02-11T11:45:53.500Z,21.95
2023-02-11T11:48:22.764Z,22.60
2023-02-11T11:50:51.239Z,21.53
2023-02-11T11:53:21.083Z,20.43
2023-02-11T11:55:51.078Z,19.90
2023-02-11T11:58:20.929Z,20.80
2023-02-11T12:00:58.008Z,20.05
2023-02-11T12:03:40.946Z,18.20
2023-02-11T12:06:21.179Z,16.75
2023-02-11T12:08:55.227Z,20.98
2023-02-11T12:11:25.510Z,21.08
2023-02-11T12:14:09.441Z,18.98
2023-02-11T12:16:44.109Z,18.77
2023-02-11T12:19:26.847Z,18.58
2023-02-11T12:22:00.498Z,17.77
2023-02-11T12:24:35.179Z,20.73
2023-02-11T12:27:07.993Z,17.80
2023-02-11T12:29:40.196Z,17.93
2023-02-11T12:32:14.065Z,18.65
2023-02-11T12:34:49.852Z,19.02
2023-02-11T12:37:24.958Z,20.77
2023-02-11T12:39:56.676Z,20.30
2023-02-11T12:43:02.814Z,21.87
2023-02-11T12:45:38.840Z,22.60
2023-02-11T12:48:13.560Z,21.05
2023-02-11T12:50:46.431Z,20.38
2023-02-11T12:53:25.165Z,19.13
2023-02-11T12:55:55.438Z,20.63
2023-02-11T12:58:35.599Z,20.67
2023-02-11T13:01:09.683Z,20.02
2023-02-11T13:03:38.314Z,19.52
2023-02-11T13:06:06.850Z,17.95
2023-02-11T13:08:35.592Z,18.07
2023-02-11T13:11:04.072Z,19.83
2023-02-11T13:13:33.226Z,17.70
2023-02-11T13:16:08.215Z,17.42
2023-02-11T13:18:50.147Z,17.98
2023-02-11T13:21:26.750Z,20.03
2023-02-11T13:23:58.907Z,17.92
2023-02-11T13:26:28.287Z,17.83
2023-02-11T13:29:02.571Z,20.15
2023-02-11T13:31:30.385Z,22.02
2023-02-11T13:33:57.867Z,19.30
2023-02-11T13:36:27.187Z,19.92
2023-02-11T13:38:59.067Z,21.70
2023-02-11T13:41:28.964Z,21.80
2023-02-11T13:44:00.909Z,19.75
2023-02-11T13:46:29.605Z,23.17
2023-02-11T13:48:56.951Z,21.98
2023-02-11T13:51:36.888Z,18.67
2023-02-11T13:54:05.047Z,20.38
2023-02-11T13:56:33.410Z,22.60
2023-02-11T13:59:02.228Z,22.70
2023-02-11T14:02:18.134Z,20.33
2023-02-11T14:05:18.522Z,19.67
2023-02-11T14:08:20.125Z,20.25
2023-02-11T14:10:53.429Z,17.67
2023-02-11T14:13:24.081Z,19.03
2023-02-11T14:16:03.901Z,20.08
2023-02-11T14:18:50.028Z,21.13
2023-02-11T14:21:19.420Z,20.73
2023-02-11T14:23:47.392Z,20.77
2023-02-11T14:26:27.072Z,21.10
2023-02-11T14:28:59.714Z,20.85
2023-02-11T14:31:29.694Z,20.35
2023-02-11T14:34:07.135Z,18.92
2023-02-11T14:36:46.976Z,19.38
2023-02-11T14:39:18.510Z,18.83
2023-02-11T14:41:49.028Z,21.13
2023-02-11T14:44:18.126Z,20.27
2023-02-11T14:46:46.712Z,21.13
2023-02-11T14:49:18.850Z,19.92
2023-02-11T14:51:46.296Z,20.53
2023-02-11T14:54:17.121Z,20.58
2023-02-11T14:56:44.781Z,22.25
2023-02-11T14:59:18.468Z,21.77
2023-02-11T15:01:48.141Z,21.90
2023-02-11T15:04:25.656Z,21.57
2023-02-11T15:06:53.260Z,24.63
2023-02-11T15:09:27.986Z,22.67
2023-02-11T15:11:56.724Z,26.83
2023-02-11T15:14:26.041Z,24.92
2023-02-11T15:16:54.265Z,25.37
2023-02-11T15:19:23.286Z,25.67
2023-02-11T15:21:51.061Z,23.02
2023-02-11T15:24:23.891Z,21.27
2023-02-11T15:26:58.675Z,21.40
2023-02-11T15:29:28.210Z,22.37
2023-02-11T15:32:08.988Z,23.45
2023-02-11T15:34:36.801Z,22.80
2023-02-11T15:37:04.526Z,22.20
2023-02-11T15:39:34.320Z,22.17
2023-02-11T15:42:19.094Z,24.03
2023-02-11T15:44:52.290Z,23.65
2023-02-11T15:47:23.569Z,26.33
2023-02-11T15:49:51.314Z,27.92
2023-02-11T15:52:23.562Z,23.35
2023-02-11T15:54:51.132Z,22.50
2023-02-11T15:57:18.398Z,24.52
2023-02-11T15:59:48.663Z,26.65
2023-02-11T16:02:18.826Z,25.42
2023-02-11T16:04:53.213Z,25.10
2023-02-11T16:07:35.269Z,24.80
2023-02-11T16:10:02.425Z,24.42
2023-02-11T16:12:30.325Z,24.55
2023-02-11T16:15:00.165Z,25.73
2023-02-11T16:17:28.650Z,24.40
2023-02-11T16:19:56.123Z,23.40
2023-02-11T16:22:25.058Z,23.77
2023-02-11T16:24:53.106Z,24.75
2023-02-11T16:27:21.922Z,24.55
2023-02-11T16:29:49.832Z,24.73
2023-02-11T16:32:19.066Z,24.83
2023-02-11T16:34:46.320Z,24.52
2023-02-11T16:37:13.528Z,25.20
2023-02-11T16:39:40.619Z,27.70
2023-02-11T16:42:08.073Z,27.92
2023-02-11T16:44:36.022Z,26.93
2023-02-11T16:47:04.040Z,27.83
2023-02-11T16:49:34.446Z,27.40
2023-02-11T16:52:02.872Z,27.83
2023-02-11T16:54:30.431Z,27.58
2023-02-11T16:56:58.276Z,27.13
2023-02-11T16:59:25.714Z,26.52
2023-02-11T17:01:54.205Z,27.30
2023-02-11T17:04:23.753Z,26.05
2023-02-11T17:06:52.477Z,26.83
2023-02-11T17:09:20.784Z,26.47
2023-02-11T17:11:48.250Z,26.60
2023-02-11T17:14:15.781Z,25.50
2023-02-11T17:16:43.403Z,26.25
2023-02-11T17:19:12.355Z,38.47
2023-02-11T17:21:41.026Z,45.00
2023-02-11T17:24:09.701Z,50.47
2023-02-11T17:26:37.316Z,58.58
2023-02-11T17:29:05.527Z,77.70
2023-02-11T17:31:33.747Z,68.00
2023-02-11T17:34:01.046Z,63.00
2023-02-11T17:36:31.445Z,66.00
2023-02-11T17:38:59.210Z,60.88
2023-02-11T17:41:28.450Z,56.97
2023-02-11T17:43:57.681Z,48.28
2023-02-11T17:46:25.032Z,42.03
2023-02-11T17:48:53.379Z,49.03
2023-02-11T17:51:24.973Z,47.63
2023-02-11T17:53:53.450Z,46.38
2023-02-11T17:56:20.841Z,45.17
2023-02-11T17:58:49.584Z,41.03
2023-02-11T18:01:16.998Z,40.92
2023-02-11T18:03:44.313Z,39.15
2023-02-11T18:06:12.153Z,40.15
2023-02-11T18:08:39.387Z,39.05
2023-02-11T18:11:09.169Z,37.13
2023-02-11T18:13:36.358Z,38.00
2023-02-11T18:16:05.521Z,37.70
2023-02-11T18:18:33.022Z,40.10
2023-02-11T18:21:00.894Z,40.05
2023-02-11T18:23:28.133Z,36.97
2023-02-11T18:25:55.352Z,38.90
2023-02-11T18:28:23.025Z,39.58
2023-02-11T18:30:56.403Z,39.45
2023-02-11T18:33:25.633Z,40.35
2023-02-11T18:35:53.599Z,37.97
2023-02-11T18:38:22.383Z,34.90
2023-02-11T18:40:50.757Z,35.95
2023-02-11T18:43:18.663Z,35.47
2023-02-11T18:45:46.325Z,36.38
2023-02-11T18:48:14.303Z,33.27
2023-02-11T18:50:44.600Z,35.63
2023-02-11T18:53:12.449Z,34.58
2023-02-11T18:55:40.620Z,36.67
2023-02-11T18:58:08.035Z,39.05
2023-02-11T19:00:35.665Z,38.10
2023-02-11T19:03:03.150Z,39.33
2023-02-11T19:05:33.608Z,43.80
2023-02-11T19:08:02.534Z,47.53
2023-02-11T19:10:29.945Z,51.78
2023-02-11T19:12:59.086Z,60.43
2023-02-11T19:15:26.787Z,62.60
2023-02-11T19:17:54.697Z,83.38
2023-02-11T19:20:22.025Z,59.67
2023-02-11T19:22:49.510Z,56.78
2023-02-11T19:25:18.454Z,60.15
2023-02-11T19:27:46.019Z,57.03
2023-02-11T19:30:13.629Z,57.25
2023-02-11T19:32:41.089Z,53.55
2023-02-11T19:35:08.469Z,55.13
2023-02-11T19:37:35.903Z,55.17
2023-02-11T19:40:03.327Z,59.70
2023-02-11T19:42:31.932Z,57.05
2023-02-11T19:44:59.257Z,58.35
2023-02-11T19:47:28.043Z,57.05
2023-02-11T19:49:55.544Z,54.20
2023-02-11T19:52:22.891Z,59.50
2023-02-11T19:54:50.253Z,58.40
2023-02-11T19:57:21.202Z,62.65
2023-02-11T19:59:50.151Z,60.70
2023-02-11T20:02:19.060Z,56.15
2023-02-11T20:04:46.452Z,54.90
2023-02-11T20:07:14.415Z,55.08
2023-02-11T20:09:42.700Z,52.72
2023-02-11T20:12:10.300Z,56.67
2023-02-11T20:14:37.824Z,51.97
2023-02-11T20:17:06.519Z,47.55
2023-02-11T20:19:33.959Z,72.85
2023-02-11T20:22:01.240Z,43.38
2023-02-11T20:24:28.638Z,56.30
2023-02-11T20:26:56.308Z,29.20
2023-02-11T20:29:24.095Z,42.28
2023-02-11T20:31:51.534Z,26.08
2023-02-11T20:34:21.968Z,21.95
2023-02-11T20:36:52.253Z,18.10
2023-02-11T20:39:21.979Z,15.13
2023-02-11T20:41:49.580Z,9.65
2023-02-11T20:44:17.021Z,11.05
2023-02-11T20:46:48.024Z,10.02
2023-02-11T20:49:16.924Z,9.52
2023-02-11T20:51:45.997Z,8.67
2023-02-11T20:54:13.886Z,8.82
2023-02-11T20:56:41.147Z,11.55
2023-02-11T20:59:09.121Z,19.73
2023-02-11T21:01:40.619Z,23.17
2023-02-11T21:04:10.962Z,14.73
2023-02-11T21:06:39.452Z,13.02
2023-02-11T21:09:09.780Z,12.88
2023-02-11T21:11:37.228Z,15.68
2023-02-11T21:14:04.855Z,12.80
2023-02-11T21:16:32.623Z,11.27
2023-02-11T21:19:00.758Z,15.80
2023-02-11T21:21:28.003Z,12.73
2023-02-11T21:23:56.209Z,13.32
2023-02-11T21:26:25.188Z,12.95
2023-02-11T21:28:55.309Z,12.47
2023-02-11T21:31:25.136Z,12.30
2023-02-11T21:33:54.646Z,13.40
2023-02-11T21:36:23.205Z,15.05
2023-02-11T21:38:50.169Z,14.05
2023-02-11T21:41:17.609Z,15.37
2023-02-11T21:43:46.340Z,14.75
2023-02-11T21:46:15.646Z,13.45
2023-02-11T21:48:42.946Z,12.77
2023-02-11T21:51:13.181Z,14.50
2023-02-11T21:53:40.463Z,8.07
2023-02-11T21:56:08.829Z,11.10
2023-02-11T21:58:36.071Z,10.70
2023-02-11T22:01:11.799Z,12.18
2023-02-11T22:03:39.255Z,11.30
2023-02-11T22:06:07.106Z,11.00
2023-02-11T22:08:34.357Z,11.68
2023-02-11T22:11:02.320Z,12.70
2023-02-11T22:13:35.443Z,12.32
2023-02-11T22:16:04.144Z,12.63
2023-02-11T22:18:32.920Z,13.57
2023-02-11T22:21:01.037Z,10.95
2023-02-11T22:23:28.484Z,10.35
2023-02-11T22:25:55.906Z,9.68
2023-02-11T22:28:23.467Z,8.73
2023-02-11T22:30:53.477Z,9.70
2023-02-11T22:33:20.499Z,9.10
2023-02-11T22:35:48.881Z,9.15
2023-02-11T22:38:15.969Z,9.50
2023-02-11T22:40:43.392Z,10.93
2023-02-11T22:43:10.377Z,11.57
2023-02-11T22:45:37.370Z,9.88
2023-02-11T22:48:04.808Z,9.75
2023-02-11T22:50:31.863Z,9.18
2023-02-11T22:53:00.250Z,8.65
2023-02-11T22:55:28.241Z,8.00
2023-02-11T22:57:55.370Z,8.68
2023-02-11T23:00:24.146Z,8.40
2023-02-11T23:02:52.150Z,8.80
2023-02-11T23:05:19.126Z,7.82
2023-02-11T23:07:46.188Z,8.73
2023-02-11T23:10:14.624Z,6.78
2023-02-11T23:12:41.609Z,6.47
2023-02-11T23:15:08.671Z,8.95
2023-02-11T23:17:35.697Z,10.35
2023-02-11T23:20:03.308Z,14.43
2023-02-11T23:22:30.365Z,7.93
2023-02-11T23:24:57.357Z,7.13
2023-02-11T23:27:25.797Z,7.28
2023-02-11T23:29:55.441Z,7.10
2023-02-11T23:32:23.525Z,6.97
2023-02-11T23:34:51.179Z,7.53
2023-02-11T23:37:18.277Z,8.30
2023-02-11T23:39:45.376Z,9.07
2023-02-11T23:42:12.664Z,9.02
2023-02-11T23:44:41.168Z,9.67
2023-02-11T23:47:08.163Z,9.20
2023-02-11T23:49:35.685Z,10.02
2023-02-11T23:52:02.649Z,10.07
2023-02-11T23:54:29.730Z,9.98
2023-02-11T23:56:56.721Z,9.93
2023-02-11T23:59:23.876Z,10.07
